sensor_id;sensor_type;location;lat;lon;timestamp;P1;durP1;ratioP1;P2;durP2;ratioP2
75887;SDS011;64562;55.662;37.300;2022-11-15T00:00:11;2.17;;;0.40;;
75887;SDS011;64562;55.662;37.300;2022-11-15T00:02:39;2.40;;;0.60;;
75887;SDS011;64562;55.662;37.300;2022-11-15T00:05:06;3.33;;;0.50;;
75887;SDS011;64562;55.662;37.300;2022-11-15T00:07:32;1.25;;;0.50;;
75887;SDS011;64562;55.662;37.300;2022-11-15T00:09:59;2.35;;;0.50;;
75887;SDS011;64562;55.662;37.300;2022-11-15T00:12:26;2.55;;;0.55;;
75887;SDS011;64562;55.662;37.300;2022-11-15T00:14:54;1.67;;;0.70;;
75887;SDS011;64562;55.662;37.300;2022-11-15T00:17:21;1.35;;;0.50;;
75887;SDS011;64562;55.662;37.300;2022-11-15T00:19:48;0.77;;;0.30;;
75887;SDS011;64562;55.662;37.300;2022-11-15T00:22:14;1.27;;;0.38;;
75887;SDS011;64562;55.662;37.300;2022-11-15T00:24:41;1.65;;;0.45;;
75887;SDS011;64562;55.662;37.300;2022-11-15T00:27:07;1.10;;;0.50;;
75887;SDS011;64562;55.662;37.300;2022-11-15T00:29:34;2.45;;;0.50;;
75887;SDS011;64562;55.662;37.300;2022-11-15T00:32:04;2.20;;;0.55;;
75887;SDS011;64562;55.662;37.300;2022-11-15T00:34:30;1.83;;;0.60;;
75887;SDS011;64562;55.662;37.300;2022-11-15T00:36:57;2.22;;;0.55;;
75887;SDS011;64562;55.662;37.300;2022-11-15T00:39:24;1.35;;;0.40;;
75887;SDS011;64562;55.662;37.300;2022-11-15T00:41:50;2.17;;;0.68;;
75887;SDS011;64562;55.662;37.300;2022-11-15T00:44:17;1.70;;;0.30;;
75887;SDS011;64562;55.662;37.300;2022-11-15T00:46:43;1.85;;;0.47;;
75887;SDS011;64562;55.662;37.300;2022-11-15T00:49:11;0.80;;;0.40;;
75887;SDS011;64562;55.662;37.300;2022-11-15T00:51:38;2.75;;;0.50;;
75887;SDS011;64562;55.662;37.300;2022-11-15T00:54:05;1.40;;;0.50;;
75887;SDS011;64562;55.662;37.300;2022-11-15T00:56:31;1.63;;;0.70;;
75887;SDS011;64562;55.662;37.300;2022-11-15T00:58:58;1.27;;;0.50;;
75887;SDS011;64562;55.662;37.300;2022-11-15T01:01:24;1.73;;;0.40;;
75887;SDS011;64562;55.662;37.300;2022-11-15T01:03:51;1.52;;;0.50;;
75887;SDS011;64562;55.662;37.300;2022-11-15T01:06:19;2.17;;;0.50;;
75887;SDS011;64562;55.662;37.300;2022-11-15T01:08:46;0.93;;;0.40;;
75887;SDS011;64562;55.662;37.300;2022-11-15T01:11:12;0.93;;;0.47;;
75887;SDS011;64562;55.662;37.300;2022-11-15T01:13:39;2.25;;;0.52;;
75887;SDS011;64562;55.662;37.300;2022-11-15T01:16:06;1.23;;;0.32;;
75887;SDS011;64562;55.662;37.300;2022-11-15T01:18:33;0.98;;;0.50;;
75887;SDS011;64562;55.662;37.300;2022-11-15T01:21:00;2.97;;;0.68;;
75887;SDS011;64562;55.662;37.300;2022-11-15T01:23:31;1.00;;;0.40;;
75887;SDS011;64562;55.662;37.300;2022-11-15T01:25:59;2.45;;;0.47;;
75887;SDS011;64562;55.662;37.300;2022-11-15T01:28:28;0.60;;;0.32;;
75887;SDS011;64562;55.662;37.300;2022-11-15T01:30:57;2.25;;;0.50;;
75887;SDS011;64562;55.662;37.300;2022-11-15T01:33:23;2.05;;;0.50;;
75887;SDS011;64562;55.662;37.300;2022-11-15T01:35:50;0.90;;;0.40;;
75887;SDS011;64562;55.662;37.300;2022-11-15T01:38:16;1.35;;;0.50;;
75887;SDS011;64562;55.662;37.300;2022-11-15T01:40:44;1.08;;;0.35;;
75887;SDS011;64562;55.662;37.300;2022-11-15T01:43:21;2.25;;;0.50;;
75887;SDS011;64562;55.662;37.300;2022-11-15T01:45:49;1.98;;;0.40;;
75887;SDS011;64562;55.662;37.300;2022-11-15T01:48:17;1.75;;;0.50;;
75887;SDS011;64562;55.662;37.300;2022-11-15T01:50:43;1.45;;;0.43;;
75887;SDS011;64562;55.662;37.300;2022-11-15T01:53:10;1.13;;;0.60;;
75887;SDS011;64562;55.662;37.300;2022-11-15T01:55:37;1.67;;;0.50;;
75887;SDS011;64562;55.662;37.300;2022-11-15T01:58:05;1.85;;;0.55;;
75887;SDS011;64562;55.662;37.300;2022-11-15T02:00:32;2.45;;;0.40;;
75887;SDS011;64562;55.662;37.300;2022-11-15T02:02:58;1.45;;;0.60;;
75887;SDS011;64562;55.662;37.300;2022-11-15T02:05:25;2.42;;;0.65;;
75887;SDS011;64562;55.662;37.300;2022-11-15T02:07:52;1.00;;;0.68;;
75887;SDS011;64562;55.662;37.300;2022-11-15T02:10:20;1.48;;;0.57;;
75887;SDS011;64562;55.662;37.300;2022-11-15T02:12:47;0.95;;;0.45;;
75887;SDS011;64562;55.662;37.300;2022-11-15T02:15:15;1.25;;;0.40;;
75887;SDS011;64562;55.662;37.300;2022-11-15T02:17:50;0.95;;;0.40;;
75887;SDS011;64562;55.662;37.300;2022-11-15T02:23:09;2.22;;;0.40;;
75887;SDS011;64562;55.662;37.300;2022-11-15T02:25:40;1.10;;;0.30;;
75887;SDS011;64562;55.662;37.300;2022-11-15T02:28:16;3.03;;;0.50;;
75887;SDS011;64562;55.662;37.300;2022-11-15T02:30:52;2.00;;;0.50;;
75887;SDS011;64562;55.662;37.300;2022-11-15T02:33:24;1.77;;;0.40;;
75887;SDS011;64562;55.662;37.300;2022-11-15T02:35:54;1.55;;;0.50;;
75887;SDS011;64562;55.662;37.300;2022-11-15T02:38:25;1.27;;;0.65;;
75887;SDS011;64562;55.662;37.300;2022-11-15T02:40:56;1.75;;;0.47;;
75887;SDS011;64562;55.662;37.300;2022-11-15T02:43:25;1.95;;;0.60;;
75887;SDS011;64562;55.662;37.300;2022-11-15T02:46:14;1.30;;;0.40;;
75887;SDS011;64562;55.662;37.300;2022-11-15T02:48:42;0.95;;;0.40;;
75887;SDS011;64562;55.662;37.300;2022-11-15T02:51:09;2.40;;;0.50;;
75887;SDS011;64562;55.662;37.300;2022-11-15T02:53:36;1.10;;;0.50;;
75887;SDS011;64562;55.662;37.300;2022-11-15T02:56:03;1.10;;;0.50;;
75887;SDS011;64562;55.662;37.300;2022-11-15T02:58:36;0.98;;;0.47;;
75887;SDS011;64562;55.662;37.300;2022-11-15T03:01:08;1.98;;;0.50;;
75887;SDS011;64562;55.662;37.300;2022-11-15T03:03:46;1.65;;;0.45;;
75887;SDS011;64562;55.662;37.300;2022-11-15T03:06:18;1.65;;;0.50;;
75887;SDS011;64562;55.662;37.300;2022-11-15T03:08:49;1.42;;;0.50;;
75887;SDS011;64562;55.662;37.300;2022-11-15T03:11:19;2.58;;;0.50;;
75887;SDS011;64562;55.662;37.300;2022-11-15T03:13:47;2.53;;;0.68;;
75887;SDS011;64562;55.662;37.300;2022-11-15T03:16:19;1.00;;;0.70;;
75887;SDS011;64562;55.662;37.300;2022-11-15T03:18:49;0.82;;;0.50;;
75887;SDS011;64562;55.662;37.300;2022-11-15T03:21:18;0.80;;;0.40;;
75887;SDS011;64562;55.662;37.300;2022-11-15T03:23:46;2.15;;;0.60;;
75887;SDS011;64562;55.662;37.300;2022-11-15T03:26:13;2.65;;;0.50;;
75887;SDS011;64562;55.662;37.300;2022-11-15T03:28:42;1.50;;;0.38;;
75887;SDS011;64562;55.662;37.300;2022-11-15T03:31:09;1.63;;;0.50;;
75887;SDS011;64562;55.662;37.300;2022-11-15T03:33:53;2.45;;;0.65;;
75887;SDS011;64562;55.662;37.300;2022-11-15T03:36:21;0.98;;;0.50;;
75887;SDS011;64562;55.662;37.300;2022-11-15T03:38:48;1.20;;;0.40;;
75887;SDS011;64562;55.662;37.300;2022-11-15T03:41:15;1.70;;;0.43;;
75887;SDS011;64562;55.662;37.300;2022-11-15T03:43:44;1.25;;;0.50;;
75887;SDS011;64562;55.662;37.300;2022-11-15T03:46:14;1.80;;;0.52;;
75887;SDS011;64562;55.662;37.300;2022-11-15T03:48:42;1.38;;;0.60;;
75887;SDS011;64562;55.662;37.300;2022-11-15T03:51:11;2.08;;;0.50;;
75887;SDS011;64562;55.662;37.300;2022-11-15T03:53:38;1.48;;;0.50;;
75887;SDS011;64562;55.662;37.300;2022-11-15T03:56:04;1.60;;;0.50;;
75887;SDS011;64562;55.662;37.300;2022-11-15T03:58:31;1.33;;;0.45;;
75887;SDS011;64562;55.662;37.300;2022-11-15T04:00:58;0.90;;;0.40;;
75887;SDS011;64562;55.662;37.300;2022-11-15T04:03:25;1.70;;;0.60;;
75887;SDS011;64562;55.662;37.300;2022-11-15T04:05:52;1.27;;;0.50;;
75887;SDS011;64562;55.662;37.300;2022-11-15T04:08:20;0.93;;;0.50;;
75887;SDS011;64562;55.662;37.300;2022-11-15T04:10:48;1.10;;;0.57;;
75887;SDS011;64562;55.662;37.300;2022-11-15T04:13:14;1.48;;;0.60;;
75887;SDS011;64562;55.662;37.300;2022-11-15T04:15:41;2.45;;;0.73;;
75887;SDS011;64562;55.662;37.300;2022-11-15T04:18:08;5.32;;;0.77;;
75887;SDS011;64562;55.662;37.300;2022-11-15T04:20:34;4.13;;;0.60;;
75887;SDS011;64562;55.662;37.300;2022-11-15T04:23:20;4.45;;;0.60;;
75887;SDS011;64562;55.662;37.300;2022-11-15T04:26:06;2.38;;;0.57;;
75887;SDS011;64562;55.662;37.300;2022-11-15T04:28:33;2.92;;;0.57;;
75887;SDS011;64562;55.662;37.300;2022-11-15T04:31:00;2.85;;;0.70;;
75887;SDS011;64562;55.662;37.300;2022-11-15T04:33:26;1.60;;;0.63;;
75887;SDS011;64562;55.662;37.300;2022-11-15T04:35:53;3.15;;;0.50;;
75887;SDS011;64562;55.662;37.300;2022-11-15T04:38:38;2.67;;;0.50;;
75887;SDS011;64562;55.662;37.300;2022-11-15T04:41:05;1.60;;;0.55;;
75887;SDS011;64562;55.662;37.300;2022-11-15T04:43:31;6.43;;;0.80;;
75887;SDS011;64562;55.662;37.300;2022-11-15T04:45:58;2.65;;;0.57;;
75887;SDS011;64562;55.662;37.300;2022-11-15T04:48:25;1.63;;;0.55;;
75887;SDS011;64562;55.662;37.300;2022-11-15T04:50:51;1.48;;;0.40;;
75887;SDS011;64562;55.662;37.300;2022-11-15T04:53:18;3.05;;;0.60;;
75887;SDS011;64562;55.662;37.300;2022-11-15T04:55:46;1.00;;;0.47;;
75887;SDS011;64562;55.662;37.300;2022-11-15T04:58:12;3.97;;;0.68;;
75887;SDS011;64562;55.662;37.300;2022-11-15T05:00:39;2.08;;;0.57;;
75887;SDS011;64562;55.662;37.300;2022-11-15T05:03:06;1.75;;;0.50;;
75887;SDS011;64562;55.662;37.300;2022-11-15T05:05:50;5.03;;;0.60;;
75887;SDS011;64562;55.662;37.300;2022-11-15T05:08:16;2.10;;;0.93;;
75887;SDS011;64562;55.662;37.300;2022-11-15T05:10:43;2.63;;;0.60;;
75887;SDS011;64562;55.662;37.300;2022-11-15T05:13:11;1.48;;;0.65;;
75887;SDS011;64562;55.662;37.300;2022-11-15T05:15:38;4.80;;;0.90;;
75887;SDS011;64562;55.662;37.300;2022-11-15T05:18:04;4.10;;;1.08;;
75887;SDS011;64562;55.662;37.300;2022-11-15T05:20:31;1.55;;;0.60;;
75887;SDS011;64562;55.662;37.300;2022-11-15T05:22:57;1.65;;;0.50;;
75887;SDS011;64562;55.662;37.300;2022-11-15T05:25:24;2.45;;;0.60;;
75887;SDS011;64562;55.662;37.300;2022-11-15T05:27:51;2.20;;;0.63;;
75887;SDS011;64562;55.662;37.300;2022-11-15T05:30:19;3.03;;;0.65;;
75887;SDS011;64562;55.662;37.300;2022-11-15T05:32:45;3.20;;;1.30;;
75887;SDS011;64562;55.662;37.300;2022-11-15T05:35:13;2.78;;;0.80;;
75887;SDS011;64562;55.662;37.300;2022-11-15T05:37:43;4.25;;;0.95;;
75887;SDS011;64562;55.662;37.300;2022-11-15T05:40:10;5.13;;;1.08;;
75887;SDS011;64562;55.662;37.300;2022-11-15T05:42:36;3.17;;;0.70;;
75887;SDS011;64562;55.662;37.300;2022-11-15T05:45:04;2.55;;;0.70;;
75887;SDS011;64562;55.662;37.300;2022-11-15T05:47:33;1.70;;;0.68;;
75887;SDS011;64562;55.662;37.300;2022-11-15T05:50:01;2.28;;;0.63;;
75887;SDS011;64562;55.662;37.300;2022-11-15T05:52:28;4.00;;;1.17;;
75887;SDS011;64562;55.662;37.300;2022-11-15T05:54:56;5.05;;;0.90;;
75887;SDS011;64562;55.662;37.300;2022-11-15T05:57:24;3.78;;;0.88;;
75887;SDS011;64562;55.662;37.300;2022-11-15T05:59:50;3.95;;;0.70;;
75887;SDS011;64562;55.662;37.300;2022-11-15T06:02:17;2.53;;;0.68;;
75887;SDS011;64562;55.662;37.300;2022-11-15T06:04:45;2.13;;;0.80;;
75887;SDS011;64562;55.662;37.300;2022-11-15T06:07:12;7.15;;;1.05;;
75887;SDS011;64562;55.662;37.300;2022-11-15T06:09:39;4.00;;;0.90;;
75887;SDS011;64562;55.662;37.300;2022-11-15T06:12:06;2.67;;;0.90;;
75887;SDS011;64562;55.662;37.300;2022-11-15T06:14:33;3.20;;;1.08;;
75887;SDS011;64562;55.662;37.300;2022-11-15T06:16:59;6.07;;;0.93;;
75887;SDS011;64562;55.662;37.300;2022-11-15T06:19:27;3.88;;;1.10;;
75887;SDS011;64562;55.662;37.300;2022-11-15T06:21:59;3.13;;;0.77;;
75887;SDS011;64562;55.662;37.300;2022-11-15T06:24:25;2.20;;;0.80;;
75887;SDS011;64562;55.662;37.300;2022-11-15T06:26:52;3.22;;;0.70;;
75887;SDS011;64562;55.662;37.300;2022-11-15T06:29:19;3.67;;;0.77;;
75887;SDS011;64562;55.662;37.300;2022-11-15T06:31:45;3.20;;;0.70;;
75887;SDS011;64562;55.662;37.300;2022-11-15T06:34:12;2.45;;;0.65;;
75887;SDS011;64562;55.662;37.300;2022-11-15T06:36:39;3.95;;;0.90;;
75887;SDS011;64562;55.662;37.300;2022-11-15T06:39:07;2.65;;;0.88;;
75887;SDS011;64562;55.662;37.300;2022-11-15T06:41:33;3.10;;;1.00;;
75887;SDS011;64562;55.662;37.300;2022-11-15T06:44:00;5.78;;;1.00;;
75887;SDS011;64562;55.662;37.300;2022-11-15T06:46:27;1.88;;;0.75;;
75887;SDS011;64562;55.662;37.300;2022-11-15T06:48:54;3.50;;;0.80;;
75887;SDS011;64562;55.662;37.300;2022-11-15T06:51:20;2.63;;;1.05;;
75887;SDS011;64562;55.662;37.300;2022-11-15T06:53:47;2.25;;;0.80;;
75887;SDS011;64562;55.662;37.300;2022-11-15T06:56:15;5.85;;;0.95;;
75887;SDS011;64562;55.662;37.300;2022-11-15T06:58:41;3.40;;;0.70;;
75887;SDS011;64562;55.662;37.300;2022-11-15T07:01:09;2.78;;;0.85;;
75887;SDS011;64562;55.662;37.300;2022-11-15T07:03:35;3.63;;;0.75;;
75887;SDS011;64562;55.662;37.300;2022-11-15T07:06:02;2.97;;;0.90;;
75887;SDS011;64562;55.662;37.300;2022-11-15T07:08:29;1.48;;;0.75;;
75887;SDS011;64562;55.662;37.300;2022-11-15T07:10:57;3.75;;;0.73;;
75887;SDS011;64562;55.662;37.300;2022-11-15T07:13:25;2.25;;;0.90;;
75887;SDS011;64562;55.662;37.300;2022-11-15T07:15:52;2.97;;;0.85;;
75887;SDS011;64562;55.662;37.300;2022-11-15T07:18:19;4.00;;;0.77;;
75887;SDS011;64562;55.662;37.300;2022-11-15T07:20:45;5.13;;;0.70;;
75887;SDS011;64562;55.662;37.300;2022-11-15T07:23:12;4.88;;;1.10;;
75887;SDS011;64562;55.662;37.300;2022-11-15T07:25:38;7.47;;;1.20;;
75887;SDS011;64562;55.662;37.300;2022-11-15T07:28:05;2.22;;;1.00;;
75887;SDS011;64562;55.662;37.300;2022-11-15T07:30:33;2.03;;;0.60;;
75887;SDS011;64562;55.662;37.300;2022-11-15T07:33:00;2.70;;;0.88;;
75887;SDS011;64562;55.662;37.300;2022-11-15T07:35:27;3.83;;;0.90;;
75887;SDS011;64562;55.662;37.300;2022-11-15T07:37:54;3.17;;;1.10;;
75887;SDS011;64562;55.662;37.300;2022-11-15T07:40:21;3.45;;;0.80;;
75887;SDS011;64562;55.662;37.300;2022-11-15T07:42:48;1.77;;;0.90;;
75887;SDS011;64562;55.662;37.300;2022-11-15T07:45:21;3.05;;;0.85;;
75887;SDS011;64562;55.662;37.300;2022-11-15T07:47:49;3.67;;;0.80;;
75887;SDS011;64562;55.662;37.300;2022-11-15T07:50:16;1.48;;;0.80;;
75887;SDS011;64562;55.662;37.300;2022-11-15T07:52:43;1.40;;;0.70;;
75887;SDS011;64562;55.662;37.300;2022-11-15T07:55:09;3.35;;;0.82;;
75887;SDS011;64562;55.662;37.300;2022-11-15T07:57:36;1.58;;;0.60;;
75887;SDS011;64562;55.662;37.300;2022-11-15T08:00:03;2.85;;;0.80;;
75887;SDS011;64562;55.662;37.300;2022-11-15T08:02:30;3.00;;;0.98;;
75887;SDS011;64562;55.662;37.300;2022-11-15T08:04:58;2.83;;;0.80;;
75887;SDS011;64562;55.662;37.300;2022-11-15T08:07:24;2.50;;;0.80;;
75887;SDS011;64562;55.662;37.300;2022-11-15T08:09:51;1.85;;;0.80;;
75887;SDS011;64562;55.662;37.300;2022-11-15T08:12:18;4.50;;;0.90;;
75887;SDS011;64562;55.662;37.300;2022-11-15T08:14:45;2.28;;;0.85;;
75887;SDS011;64562;55.662;37.300;2022-11-15T08:17:11;3.17;;;0.90;;
75887;SDS011;64562;55.662;37.300;2022-11-15T08:19:38;4.72;;;0.98;;
75887;SDS011;64562;55.662;37.300;2022-11-15T08:22:06;3.42;;;1.17;;
75887;SDS011;64562;55.662;37.300;2022-11-15T08:24:33;3.33;;;0.90;;
75887;SDS011;64562;55.662;37.300;2022-11-15T08:27:00;2.53;;;0.73;;
75887;SDS011;64562;55.662;37.300;2022-11-15T08:29:26;2.28;;;0.85;;
75887;SDS011;64562;55.662;37.300;2022-11-15T08:31:54;2.40;;;0.77;;
75887;SDS011;64562;55.662;37.300;2022-11-15T08:34:21;2.65;;;0.90;;
75887;SDS011;64562;55.662;37.300;2022-11-15T08:36:47;3.22;;;0.70;;
75887;SDS011;64562;55.662;37.300;2022-11-15T08:39:15;2.30;;;0.95;;
75887;SDS011;64562;55.662;37.300;2022-11-15T08:41:42;2.25;;;0.80;;
75887;SDS011;64562;55.662;37.300;2022-11-15T08:44:09;2.53;;;0.70;;
75887;SDS011;64562;55.662;37.300;2022-11-15T08:46:36;1.63;;;0.70;;
75887;SDS011;64562;55.662;37.300;2022-11-15T08:49:02;2.75;;;1.08;;
75887;SDS011;64562;55.662;37.300;2022-11-15T08:51:29;2.15;;;0.88;;
75887;SDS011;64562;55.662;37.300;2022-11-15T08:53:56;2.80;;;0.80;;
75887;SDS011;64562;55.662;37.300;2022-11-15T08:56:24;3.05;;;1.20;;
75887;SDS011;64562;55.662;37.300;2022-11-15T08:58:50;1.45;;;0.80;;
75887;SDS011;64562;55.662;37.300;2022-11-15T09:01:18;4.40;;;0.93;;
75887;SDS011;64562;55.662;37.300;2022-11-15T09:03:45;1.75;;;0.77;;
75887;SDS011;64562;55.662;37.300;2022-11-15T09:06:11;4.47;;;0.73;;
75887;SDS011;64562;55.662;37.300;2022-11-15T09:08:38;3.08;;;0.73;;
75887;SDS011;64562;55.662;37.300;2022-11-15T09:11:05;5.72;;;0.98;;
75887;SDS011;64562;55.662;37.300;2022-11-15T09:13:33;2.17;;;0.77;;
75887;SDS011;64562;55.662;37.300;2022-11-15T09:16:02;2.08;;;0.90;;
75887;SDS011;64562;55.662;37.300;2022-11-15T09:18:29;3.20;;;1.02;;
75887;SDS011;64562;55.662;37.300;2022-11-15T09:20:56;3.08;;;0.98;;
75887;SDS011;64562;55.662;37.300;2022-11-15T09:23:23;2.97;;;0.70;;
75887;SDS011;64562;55.662;37.300;2022-11-15T09:25:49;1.73;;;0.90;;
75887;SDS011;64562;55.662;37.300;2022-11-15T09:28:18;2.08;;;0.80;;
75887;SDS011;64562;55.662;37.300;2022-11-15T09:30:46;3.63;;;1.15;;
75887;SDS011;64562;55.662;37.300;2022-11-15T09:33:13;2.10;;;0.90;;
75887;SDS011;64562;55.662;37.300;2022-11-15T09:35:39;2.80;;;0.88;;
75887;SDS011;64562;55.662;37.300;2022-11-15T09:38:07;3.30;;;1.10;;
75887;SDS011;64562;55.662;37.300;2022-11-15T09:40:35;1.95;;;0.80;;
75887;SDS011;64562;55.662;37.300;2022-11-15T09:43:05;2.25;;;0.70;;
75887;SDS011;64562;55.662;37.300;2022-11-15T09:45:34;1.50;;;0.80;;
75887;SDS011;64562;55.662;37.300;2022-11-15T09:48:08;1.95;;;0.70;;
75887;SDS011;64562;55.662;37.300;2022-11-15T09:50:38;2.00;;;0.73;;
75887;SDS011;64562;55.662;37.300;2022-11-15T09:53:08;1.63;;;0.80;;
75887;SDS011;64562;55.662;37.300;2022-11-15T09:55:51;3.00;;;0.80;;
75887;SDS011;64562;55.662;37.300;2022-11-15T09:58:22;4.57;;;0.90;;
75887;SDS011;64562;55.662;37.300;2022-11-15T10:00:51;2.45;;;0.75;;
75887;SDS011;64562;55.662;37.300;2022-11-15T10:03:22;2.90;;;0.95;;
75887;SDS011;64562;55.662;37.300;2022-11-15T10:05:50;2.67;;;0.75;;
75887;SDS011;64562;55.662;37.300;2022-11-15T10:11:03;2.13;;;0.70;;
75887;SDS011;64562;55.662;37.300;2022-11-15T10:13:32;1.50;;;0.70;;
75887;SDS011;64562;55.662;37.300;2022-11-15T10:16:03;2.70;;;0.77;;
75887;SDS011;64562;55.662;37.300;2022-11-15T10:18:32;2.63;;;0.70;;
75887;SDS011;64562;55.662;37.300;2022-11-15T10:21:02;3.00;;;1.10;;
75887;SDS011;64562;55.662;37.300;2022-11-15T10:23:33;2.35;;;0.80;;
75887;SDS011;64562;55.662;37.300;2022-11-15T10:26:00;3.05;;;0.70;;
75887;SDS011;64562;55.662;37.300;2022-11-15T10:28:27;1.98;;;0.70;;
75887;SDS011;64562;55.662;37.300;2022-11-15T10:30:55;3.17;;;0.80;;
75887;SDS011;64562;55.662;37.300;2022-11-15T10:33:24;1.58;;;0.63;;
75887;SDS011;64562;55.662;37.300;2022-11-15T10:38:35;2.83;;;0.73;;
75887;SDS011;64562;55.662;37.300;2022-11-15T10:41:16;3.33;;;1.00;;
75887;SDS011;64562;55.662;37.300;2022-11-15T10:43:43;5.22;;;0.80;;
75887;SDS011;64562;55.662;37.300;2022-11-15T10:46:16;3.83;;;0.90;;
75887;SDS011;64562;55.662;37.300;2022-11-15T10:48:44;3.22;;;0.77;;
75887;SDS011;64562;55.662;37.300;2022-11-15T10:51:18;2.45;;;0.65;;
75887;SDS011;64562;55.662;37.300;2022-11-15T10:53:48;3.00;;;0.73;;
75887;SDS011;64562;55.662;37.300;2022-11-15T10:56:15;2.90;;;1.10;;
75887;SDS011;64562;55.662;37.300;2022-11-15T10:58:49;4.07;;;1.40;;
75887;SDS011;64562;55.662;37.300;2022-11-15T11:01:17;5.65;;;2.63;;
75887;SDS011;64562;55.662;37.300;2022-11-15T11:03:45;4.15;;;2.95;;
75887;SDS011;64562;55.662;37.300;2022-11-15T11:06:23;4.07;;;2.53;;
75887;SDS011;64562;55.662;37.300;2022-11-15T11:08:55;3.60;;;1.83;;
75887;SDS011;64562;55.662;37.300;2022-11-15T11:11:22;4.93;;;1.90;;
75887;SDS011;64562;55.662;37.300;2022-11-15T11:13:49;6.85;;;1.85;;
75887;SDS011;64562;55.662;37.300;2022-11-15T11:16:26;5.82;;;2.05;;
75887;SDS011;64562;55.662;37.300;2022-11-15T11:18:57;5.60;;;1.80;;
75887;SDS011;64562;55.662;37.300;2022-11-15T11:21:31;6.55;;;2.70;;
75887;SDS011;64562;55.662;37.300;2022-11-15T11:24:08;17.35;;;3.67;;
75887;SDS011;64562;55.662;37.300;2022-11-15T11:26:40;25.35;;;6.35;;
75887;SDS011;64562;55.662;37.300;2022-11-15T11:29:13;28.60;;;10.38;;
75887;SDS011;64562;55.662;37.300;2022-11-15T11:31:47;45.17;;;17.67;;
75887;SDS011;64562;55.662;37.300;2022-11-15T11:34:16;30.05;;;11.63;;
75887;SDS011;64562;55.662;37.300;2022-11-15T11:36:48;24.13;;;8.80;;
75887;SDS011;64562;55.662;37.300;2022-11-15T11:39:21;17.50;;;6.53;;
75887;SDS011;64562;55.662;37.300;2022-11-15T11:41:53;12.90;;;4.70;;
75887;SDS011;64562;55.662;37.300;2022-11-15T11:44:30;11.70;;;3.60;;
75887;SDS011;64562;55.662;37.300;2022-11-15T11:46:59;9.52;;;3.00;;
75887;SDS011;64562;55.662;37.300;2022-11-15T11:49:28;8.40;;;2.83;;
75887;SDS011;64562;55.662;37.300;2022-11-15T11:51:58;10.27;;;2.47;;
75887;SDS011;64562;55.662;37.300;2022-11-15T11:54:29;10.77;;;2.45;;
75887;SDS011;64562;55.662;37.300;2022-11-15T11:57:01;6.35;;;1.90;;
75887;SDS011;64562;55.662;37.300;2022-11-15T11:59:32;7.07;;;2.33;;
75887;SDS011;64562;55.662;37.300;2022-11-15T12:02:01;7.63;;;2.25;;
75887;SDS011;64562;55.662;37.300;2022-11-15T12:04:36;5.30;;;2.05;;
75887;SDS011;64562;55.662;37.300;2022-11-15T12:07:05;7.57;;;1.90;;
75887;SDS011;64562;55.662;37.300;2022-11-15T12:09:36;6.10;;;1.80;;
75887;SDS011;64562;55.662;37.300;2022-11-15T12:12:06;4.97;;;1.67;;
75887;SDS011;64562;55.662;37.300;2022-11-15T12:14:34;4.68;;;1.80;;
75887;SDS011;64562;55.662;37.300;2022-11-15T12:17:01;5.78;;;1.77;;
75887;SDS011;64562;55.662;37.300;2022-11-15T12:19:28;3.80;;;1.50;;
75887;SDS011;64562;55.662;37.300;2022-11-15T12:21:56;6.30;;;1.50;;
75887;SDS011;64562;55.662;37.300;2022-11-15T12:24:27;4.22;;;1.67;;
75887;SDS011;64562;55.662;37.300;2022-11-15T12:26:57;4.88;;;1.40;;
75887;SDS011;64562;55.662;37.300;2022-11-15T12:29:26;5.68;;;1.75;;
75887;SDS011;64562;55.662;37.300;2022-11-15T12:31:55;3.25;;;1.40;;
75887;SDS011;64562;55.662;37.300;2022-11-15T12:34:43;5.85;;;1.60;;
75887;SDS011;64562;55.662;37.300;2022-11-15T12:40:16;5.18;;;1.50;;
75887;SDS011;64562;55.662;37.300;2022-11-15T12:42:57;7.15;;;1.50;;
75887;SDS011;64562;55.662;37.300;2022-11-15T12:45:25;3.42;;;1.27;;
75887;SDS011;64562;55.662;37.300;2022-11-15T12:47:52;3.78;;;1.50;;
75887;SDS011;64562;55.662;37.300;2022-11-15T12:55:44;3.85;;;1.52;;
75887;SDS011;64562;55.662;37.300;2022-11-15T12:58:41;4.50;;;1.33;;
75887;SDS011;64562;55.662;37.300;2022-11-15T13:01:08;4.20;;;1.48;;
75887;SDS011;64562;55.662;37.300;2022-11-15T13:03:35;4.80;;;1.25;;
75887;SDS011;64562;55.662;37.300;2022-11-15T13:06:03;3.92;;;1.40;;
75887;SDS011;64562;55.662;37.300;2022-11-15T13:08:41;2.55;;;1.20;;
75887;SDS011;64562;55.662;37.300;2022-11-15T13:13:55;3.50;;;1.27;;
75887;SDS011;64562;55.662;37.300;2022-11-15T13:16:22;6.68;;;1.48;;
75887;SDS011;64562;55.662;37.300;2022-11-15T13:18:52;4.05;;;1.35;;
75887;SDS011;64562;55.662;37.300;2022-11-15T13:21:20;2.65;;;1.08;;
75887;SDS011;64562;55.662;37.300;2022-11-15T13:24:05;3.38;;;1.23;;
75887;SDS011;64562;55.662;37.300;2022-11-15T13:26:37;4.85;;;1.10;;
75887;SDS011;64562;55.662;37.300;2022-11-15T13:29:12;5.63;;;1.58;;
75887;SDS011;64562;55.662;37.300;2022-11-15T13:31:41;4.45;;;1.20;;
75887;SDS011;64562;55.662;37.300;2022-11-15T13:34:22;4.05;;;1.25;;
75887;SDS011;64562;55.662;37.300;2022-11-15T13:36:50;3.28;;;1.20;;
75887;SDS011;64562;55.662;37.300;2022-11-15T13:39:25;5.40;;;1.50;;
75887;SDS011;64562;55.662;37.300;2022-11-15T13:41:52;4.10;;;1.30;;
75887;SDS011;64562;55.662;37.300;2022-11-15T13:44:21;4.40;;;1.48;;
75887;SDS011;64562;55.662;37.300;2022-11-15T13:46:48;2.90;;;1.20;;
75887;SDS011;64562;55.662;37.300;2022-11-15T13:49:15;3.65;;;1.15;;
75887;SDS011;64562;55.662;37.300;2022-11-15T13:51:42;3.30;;;1.33;;
75887;SDS011;64562;55.662;37.300;2022-11-15T13:54:13;4.72;;;1.60;;
75887;SDS011;64562;55.662;37.300;2022-11-15T13:56:43;2.30;;;1.17;;
75887;SDS011;64562;55.662;37.300;2022-11-15T13:59:13;4.65;;;1.20;;
75887;SDS011;64562;55.662;37.300;2022-11-15T14:01:42;3.92;;;1.10;;
75887;SDS011;64562;55.662;37.300;2022-11-15T14:04:11;2.92;;;1.30;;
75887;SDS011;64562;55.662;37.300;2022-11-15T14:06:43;6.13;;;1.25;;
75887;SDS011;64562;55.662;37.300;2022-11-15T14:12:22;3.38;;;1.13;;
75887;SDS011;64562;55.662;37.300;2022-11-15T14:14:49;4.13;;;1.67;;
75887;SDS011;64562;55.662;37.300;2022-11-15T14:17:19;2.88;;;1.10;;
75887;SDS011;64562;55.662;37.300;2022-11-15T14:19:48;4.50;;;1.58;;
75887;SDS011;64562;55.662;37.300;2022-11-15T14:22:20;4.95;;;1.27;;
75887;SDS011;64562;55.662;37.300;2022-11-15T14:25:02;3.60;;;1.20;;
75887;SDS011;64562;55.662;37.300;2022-11-15T14:27:30;4.70;;;1.23;;
75887;SDS011;64562;55.662;37.300;2022-11-15T14:29:57;2.80;;;1.33;;
75887;SDS011;64562;55.662;37.300;2022-11-15T14:32:26;3.65;;;1.20;;
75887;SDS011;64562;55.662;37.300;2022-11-15T14:34:54;3.60;;;1.15;;
75887;SDS011;64562;55.662;37.300;2022-11-15T14:37:21;4.47;;;1.50;;
75887;SDS011;64562;55.662;37.300;2022-11-15T14:39:48;3.33;;;1.35;;
75887;SDS011;64562;55.662;37.300;2022-11-15T14:42:15;2.20;;;1.15;;
75887;SDS011;64562;55.662;37.300;2022-11-15T14:44:42;3.08;;;1.23;;
75887;SDS011;64562;55.662;37.300;2022-11-15T14:47:09;2.92;;;1.25;;
75887;SDS011;64562;55.662;37.300;2022-11-15T14:49:37;3.28;;;1.42;;
75887;SDS011;64562;55.662;37.300;2022-11-15T14:52:07;3.28;;;1.40;;
75887;SDS011;64562;55.662;37.300;2022-11-15T14:54:33;4.03;;;1.38;;
75887;SDS011;64562;55.662;37.300;2022-11-15T14:57:00;3.03;;;1.38;;
75887;SDS011;64562;55.662;37.300;2022-11-15T14:59:27;3.25;;;1.33;;
75887;SDS011;64562;55.662;37.300;2022-11-15T15:01:53;4.03;;;1.58;;
75887;SDS011;64562;55.662;37.300;2022-11-15T15:04:20;4.10;;;1.58;;